createdAt,value
2022-10-30T00:00:43.142Z,63.90
2022-10-30T00:04:46.112Z,64.00
2022-10-30T00:08:48.956Z,64.10
2022-10-30T00:12:51.972Z,64.10
2022-10-30T00:16:54.742Z,64.10
2022-10-30T00:20:57.627Z,64.10
2022-10-30T00:25:00.425Z,64.10
2022-10-30T00:29:03.231Z,64.50
2022-10-30T00:33:06.103Z,64.70
2022-10-30T00:37:10.322Z,64.60
2022-10-30T00:41:18.190Z,64.80
2022-10-30T00:45:21.029Z,65.00
2022-10-30T00:49:24.827Z,65.30
2022-10-30T00:53:29.230Z,65.40
2022-10-30T00:57:32.657Z,65.60
2022-10-30T01:01:39.593Z,65.80
2022-10-30T01:05:45.727Z,66.10
2022-10-30T01:09:49.205Z,66.40
2022-10-30T01:13:55.590Z,66.40
2022-10-30T01:18:02.921Z,66.80
2022-10-30T01:22:24.603Z,66.90
2022-10-30T01:26:45.642Z,66.80
2022-10-30T01:31:03.584Z,67.00
2022-10-30T01:35:21.333Z,67.00
2022-10-30T01:39:27.452Z,67.00
2022-10-30T01:43:31.261Z,66.70
2022-10-30T01:47:59.856Z,66.50
2022-10-30T01:52:45.537Z,66.80
2022-10-30T01:57:07.111Z,66.60
2022-10-30T02:01:13.349Z,66.90
2022-10-30T02:05:31.167Z,67.10
2022-10-30T02:09:34.666Z,67.30
2022-10-30T02:13:38.613Z,67.40
2022-10-30T02:17:41.685Z,67.70
2022-10-30T02:21:44.628Z,67.90
2022-10-30T02:25:48.398Z,68.00
2022-10-30T02:29:51.170Z,68.10
2022-10-30T02:33:54.011Z,68.00
2022-10-30T02:37:57.181Z,68.10
2022-10-30T02:42:02.247Z,68.10
2022-10-30T02:46:05.775Z,68.00
2022-10-30T02:50:09.991Z,68.20
2022-10-30T02:54:13.737Z,68.60
2022-10-30T02:58:17.288Z,68.80
2022-10-30T03:02:20.222Z,69.00
2022-10-30T03:06:23.245Z,68.90
2022-10-30T03:10:26.758Z,69.10
2022-10-30T03:14:29.747Z,69.10
2022-10-30T03:18:32.901Z,68.90
2022-10-30T03:22:41.034Z,68.90
2022-10-30T03:26:43.785Z,69.00
2022-10-30T03:30:47.251Z,69.00
2022-10-30T03:34:50.007Z,69.20
2022-10-30T03:38:54.935Z,69.30
2022-10-30T03:42:58.145Z,69.00
2022-10-30T03:47:01.242Z,69.00
2022-10-30T03:51:24.415Z,69.00
2022-10-30T03:55:27.273Z,68.90
2022-10-30T03:59:30.438Z,68.80
2022-10-30T04:03:59.164Z,68.80
2022-10-30T04:08:05.276Z,68.90
2022-10-30T04:12:11.507Z,69.10
2022-10-30T04:16:14.342Z,69.10
2022-10-30T04:20:22.313Z,69.10
2022-10-30T04:24:25.135Z,69.30
2022-10-30T04:28:30.927Z,69.30
2022-10-30T04:32:33.976Z,69.30
2022-10-30T04:36:36.836Z,69.40
2022-10-30T04:40:43.275Z,69.40
2022-10-30T04:44:47.360Z,69.60
2022-10-30T04:48:50.170Z,69.60
2022-10-30T04:52:59.910Z,69.70
2022-10-30T04:57:02.902Z,70.10
2022-10-30T05:01:07.777Z,70.00
2022-10-30T05:05:12.457Z,70.20
2022-10-30T05:09:15.785Z,70.20
2022-10-30T05:13:19.086Z,70.30
2022-10-30T05:17:21.939Z,70.40
2022-10-30T05:21:26.771Z,70.50
2022-10-30T05:25:30.503Z,70.60
2022-10-30T05:29:35.885Z,70.90
2022-10-30T05:33:38.984Z,70.80
2022-10-30T05:37:41.829Z,70.90
2022-10-30T05:41:44.776Z,71.00
2022-10-30T05:45:50.100Z,71.10
2022-10-30T05:49:54.071Z,71.10
2022-10-30T05:54:01.079Z,71.00
2022-10-30T05:58:06.878Z,71.10
2022-10-30T06:02:14.225Z,71.30
2022-10-30T06:06:17.931Z,71.40
2022-10-30T06:10:21.554Z,71.10
2022-10-30T06:14:40.808Z,71.10
2022-10-30T06:18:43.659Z,71.00
2022-10-30T06:22:59.166Z,71.20
2022-10-30T06:27:09.402Z,71.60
2022-10-30T06:31:12.228Z,71.20
2022-10-30T06:35:16.828Z,71.50
2022-10-30T06:39:19.733Z,71.70
2022-10-30T06:43:43.743Z,71.90
2022-10-30T06:47:53.103Z,71.90
2022-10-30T06:51:55.878Z,72.00
2022-10-30T06:56:01.406Z,71.90
2022-10-30T07:00:18.532Z,71.80
2022-10-30T07:04:41.988Z,71.80
2022-10-30T07:08:44.922Z,71.60
2022-10-30T07:12:54.905Z,71.70
2022-10-30T07:17:15.055Z,72.00
2022-10-30T07:21:23.608Z,71.30
2022-10-30T07:25:26.678Z,71.40
2022-10-30T07:29:41.180Z,71.60
2022-10-30T07:34:09.269Z,71.70
2022-10-30T07:38:25.139Z,71.30
2022-10-30T07:42:33.924Z,71.10
2022-10-30T07:46:59.926Z,71.20
2022-10-30T07:51:21.925Z,71.50
2022-10-30T07:55:25.672Z,71.20
2022-10-30T07:59:28.478Z,70.90
2022-10-30T08:03:55.778Z,70.90
2022-10-30T08:08:03.747Z,70.80
2022-10-30T08:12:07.418Z,70.10
2022-10-30T08:16:10.238Z,70.50
2022-10-30T08:20:15.543Z,70.50
2022-10-30T08:24:19.225Z,70.40
2022-10-30T08:28:28.286Z,70.10
2022-10-30T08:32:34.760Z,69.80
2022-10-30T08:37:03.389Z,69.20
2022-10-30T08:41:06.366Z,68.60
2022-10-30T08:45:14.168Z,68.10
2022-10-30T08:49:39.784Z,67.40
2022-10-30T08:53:42.665Z,66.90
2022-10-30T08:57:49.547Z,66.20
2022-10-30T09:01:52.491Z,66.70
2022-10-30T09:05:57.652Z,66.30
2022-10-30T09:10:19.138Z,65.90
2022-10-30T09:14:22.082Z,65.40
2022-10-30T09:18:25.551Z,64.90
2022-10-30T09:22:29.605Z,64.80
2022-10-30T09:26:32.578Z,64.20
2022-10-30T09:30:57.953Z,63.50
2022-10-30T09:35:03.205Z,63.00
2022-10-30T09:39:14.331Z,62.60
2022-10-30T09:43:42.095Z,62.20
2022-10-30T09:47:50.926Z,61.50
2022-10-30T09:52:14.289Z,61.10
2022-10-30T09:56:59.509Z,60.60
2022-10-30T10:01:28.165Z,60.70
2022-10-30T10:05:59.286Z,59.60
2022-10-30T10:10:59.740Z,59.00
2022-10-30T10:15:09.589Z,59.40
2022-10-30T10:19:19.505Z,57.40
2022-10-30T10:23:41.524Z,57.50
2022-10-30T10:28:07.708Z,56.70
2022-10-30T10:32:16.346Z,55.80
2022-10-30T10:37:05.129Z,55.50
2022-10-30T10:41:19.382Z,55.10
2022-10-30T10:45:37.718Z,53.10
2022-10-30T10:50:01.713Z,53.60
2022-10-30T10:54:16.701Z,53.60
2022-10-30T10:58:29.688Z,53.10
2022-10-30T11:03:04.145Z,51.40
2022-10-30T11:07:26.933Z,50.90
2022-10-30T11:11:29.817Z,51.20
2022-10-30T11:15:50.320Z,51.30
2022-10-30T11:20:03.124Z,49.90
2022-10-30T11:24:27.571Z,49.10
2022-10-30T11:28:44.228Z,50.10
2022-10-30T11:32:47.526Z,48.90
2022-10-30T11:36:52.620Z,48.70
2022-10-30T11:40:55.577Z,47.90
2022-10-30T11:44:58.901Z,47.80
2022-10-30T11:49:02.520Z,46.90
2022-10-30T11:53:16.640Z,46.70
2022-10-30T11:57:23.622Z,46.80
2022-10-30T12:01:29.455Z,46.50
2022-10-30T12:05:36.123Z,46.50
2022-10-30T12:09:46.841Z,46.40
2022-10-30T12:13:49.545Z,45.50
2022-10-30T12:18:41.280Z,46.30
2022-10-30T12:22:44.298Z,47.40
2022-10-30T12:26:51.299Z,45.90
2022-10-30T12:31:03.167Z,45.90
2022-10-30T12:35:35.870Z,45.40
2022-10-30T12:39:38.665Z,45.90
2022-10-30T12:43:44.194Z,45.10
2022-10-30T12:48:03.885Z,45.20
2022-10-30T12:52:42.287Z,45.00
2022-10-30T12:56:49.422Z,45.70
2022-10-30T13:01:01.497Z,44.80
2022-10-30T13:05:26.665Z,44.50
2022-10-30T13:10:22.206Z,45.20
2022-10-30T13:14:50.039Z,45.90
2022-10-30T13:18:56.768Z,45.60
2022-10-30T13:23:26.261Z,44.80
2022-10-30T13:28:06.463Z,45.50
2022-10-30T13:32:12.294Z,45.40
2022-10-30T13:36:40.611Z,44.10
2022-10-30T13:41:06.641Z,45.10
2022-10-30T13:45:28.259Z,44.40
2022-10-30T13:49:42.535Z,45.90
2022-10-30T13:53:49.732Z,43.10
2022-10-30T13:58:26.488Z,41.70
2022-10-30T14:02:45.874Z,43.20
2022-10-30T14:06:48.735Z,42.10
2022-10-30T14:11:00.659Z,41.70
2022-10-30T14:15:25.770Z,39.90
2022-10-30T14:19:28.626Z,40.80
2022-10-30T14:23:36.562Z,39.90
2022-10-30T14:27:40.033Z,40.90
2022-10-30T14:31:42.806Z,40.20
2022-10-30T14:35:45.996Z,40.40
2022-10-30T14:39:50.598Z,40.00
2022-10-30T14:43:59.403Z,39.90
2022-10-30T14:48:24.318Z,39.50
2022-10-30T14:53:01.613Z,40.50
2022-10-30T14:57:19.693Z,39.60
2022-10-30T15:01:33.798Z,38.90
2022-10-30T15:06:07.178Z,39.80
2022-10-30T15:10:19.084Z,41.00
2022-10-30T15:14:48.495Z,41.60
2022-10-30T15:19:05.531Z,41.10
2022-10-30T15:23:16.558Z,42.40
2022-10-30T15:27:22.252Z,41.60
2022-10-30T15:31:27.074Z,43.00
2022-10-30T15:35:29.897Z,44.50
2022-10-30T15:39:32.763Z,44.80
2022-10-30T15:43:39.544Z,45.20
2022-10-30T15:47:52.656Z,45.70
2022-10-30T15:51:56.000Z,46.00
2022-10-30T15:56:00.130Z,46.60
2022-10-30T16:00:08.036Z,46.80
2022-10-30T16:04:36.499Z,47.20
2022-10-30T16:08:48.509Z,47.60
2022-10-30T16:12:53.064Z,47.50
2022-10-30T16:17:00.221Z,47.90
2022-10-30T16:21:07.113Z,48.30
2022-10-30T16:25:12.950Z,48.90
2022-10-30T16:29:18.653Z,49.30
2022-10-30T16:33:26.323Z,49.80
2022-10-30T16:37:38.522Z,50.30
2022-10-30T16:41:41.339Z,50.60
2022-10-30T16:45:49.421Z,51.20
2022-10-30T16:49:57.891Z,52.10
2022-10-30T16:54:00.971Z,52.30
2022-10-30T16:58:04.181Z,52.60
2022-10-30T17:02:26.534Z,53.00
2022-10-30T17:06:43.375Z,53.10
2022-10-30T17:11:07.548Z,52.70
2022-10-30T17:15:14.952Z,52.30
2022-10-30T17:19:33.075Z,52.40
2022-10-30T17:23:36.480Z,52.30
2022-10-30T17:27:47.265Z,52.40
2022-10-30T17:31:50.416Z,52.60
2022-10-30T17:39:57.159Z,53.00
2022-10-30T17:44:01.356Z,53.50
2022-10-30T17:48:14.160Z,53.80
2022-10-30T17:52:21.587Z,54.30
2022-10-30T17:56:31.584Z,54.50
2022-10-30T18:00:34.399Z,54.90
2022-10-30T18:04:37.379Z,55.40
2022-10-30T18:08:40.212Z,56.00
2022-10-30T18:12:44.853Z,56.60
2022-10-30T18:16:52.830Z,57.00
2022-10-30T18:20:58.292Z,57.20
2022-10-30T18:25:01.292Z,57.60
2022-10-30T18:29:04.406Z,57.70
2022-10-30T18:33:10.864Z,58.20
2022-10-30T18:37:14.922Z,58.60
2022-10-30T18:41:19.535Z,58.60
2022-10-30T18:45:28.235Z,58.70
2022-10-30T18:49:33.581Z,58.80
2022-10-30T18:53:52.119Z,58.80
2022-10-30T18:57:58.688Z,58.90
2022-10-30T19:02:02.417Z,59.40
2022-10-30T19:06:09.870Z,59.40
2022-10-30T19:10:13.005Z,60.00
2022-10-30T19:14:18.452Z,59.80
2022-10-30T19:18:21.720Z,60.20
2022-10-30T19:22:24.582Z,60.30
2022-10-30T19:26:27.621Z,60.70
2022-10-30T19:30:30.553Z,61.20
2022-10-30T19:34:33.567Z,61.40
2022-10-30T19:38:36.397Z,61.70
2022-10-30T19:42:39.264Z,62.00
2022-10-30T19:46:42.189Z,61.90
2022-10-30T19:50:46.523Z,62.10
2022-10-30T19:54:50.817Z,62.30
2022-10-30T19:58:53.799Z,62.50
2022-10-30T20:02:58.487Z,62.50
2022-10-30T20:07:02.602Z,62.70
2022-10-30T20:11:06.103Z,63.00
2022-10-30T20:15:14.474Z,63.10
2022-10-30T20:19:35.419Z,63.40
2022-10-30T20:23:39.112Z,63.20
2022-10-30T20:27:43.916Z,64.00
2022-10-30T20:31:50.032Z,64.20
2022-10-30T20:35:54.814Z,64.00
2022-10-30T20:39:57.899Z,64.40
2022-10-30T20:44:01.050Z,64.40
2022-10-30T20:48:04.195Z,64.60
2022-10-30T20:52:07.118Z,64.80
2022-10-30T20:56:11.692Z,65.00
2022-10-30T21:00:18.661Z,65.00
2022-10-30T21:04:21.482Z,65.10
2022-10-30T21:08:29.053Z,65.40
2022-10-30T21:12:35.120Z,66.00
2022-10-30T21:16:42.948Z,66.10
2022-10-30T21:20:48.097Z,66.30
2022-10-30T21:24:53.781Z,66.30
2022-10-30T21:28:59.300Z,66.70
2022-10-30T21:33:02.522Z,66.70
2022-10-30T21:37:05.924Z,66.80
2022-10-30T21:41:13.684Z,66.90
2022-10-30T21:45:16.989Z,67.00
2022-10-30T21:49:20.118Z,67.10
2022-10-30T21:53:23.027Z,67.20
2022-10-30T21:57:25.956Z,67.50
2022-10-30T22:01:31.674Z,67.60
2022-10-30T22:05:34.607Z,67.50
2022-10-30T22:09:37.850Z,67.90
2022-10-30T22:13:41.329Z,68.00
2022-10-30T22:17:44.188Z,67.90
2022-10-30T22:21:47.011Z,67.90
2022-10-30T22:26:00.972Z,68.00
2022-10-30T22:30:04.080Z,68.80
2022-10-30T22:34:07.074Z,68.70
2022-10-30T22:38:10.381Z,68.70
2022-10-30T22:42:13.215Z,68.80
2022-10-30T22:46:18.130Z,68.80
2022-10-30T22:50:21.089Z,69.10
2022-10-30T22:54:23.996Z,68.80
2022-10-30T22:58:30.838Z,69.00
2022-10-30T23:02:34.366Z,69.40
2022-10-30T23:06:37.566Z,69.40
2022-10-30T23:10:40.402Z,69.60
2022-10-30T23:14:43.168Z,69.70
2022-10-30T23:18:46.745Z,69.70
2022-10-30T23:22:49.679Z,69.80
2022-10-30T23:26:53.672Z,69.90
2022-10-30T23:30:56.741Z,69.90
2022-10-30T23:34:59.574Z,70.00
2022-10-30T23:39:05.318Z,70.30
2022-10-30T23:43:08.206Z,70.50
2022-10-30T23:47:11.074Z,70.00
2022-10-30T23:51:14.311Z,70.20
2022-10-30T23:55:17.294Z,70.40
2022-10-30T23:59:20.048Z,70.30
